createdAt,value
2023-03-03T00:04:55.536Z,99050.91
2023-03-03T00:09:57.980Z,99046.86
2023-03-03T00:15:18.003Z,99050.86
2023-03-03T00:20:38.425Z,99046.95
2023-03-03T00:25:44.663Z,99047.96
2023-03-03T00:30:46.406Z,99045.65
2023-03-03T00:35:48.226Z,99039.89
2023-03-03T00:40:52.370Z,99038.45
2023-03-03T00:45:56.591Z,99037.45
2023-03-03T00:51:30.093Z,99039.52
2023-03-03T00:56:31.981Z,99042.02
2023-03-03T01:01:33.733Z,99038.83
2023-03-03T01:06:35.763Z,99038.65
2023-03-03T01:11:37.508Z,99039.58
2023-03-03T01:16:39.205Z,99031.36
2023-03-03T01:21:40.978Z,99030.50
2023-03-03T01:26:42.751Z,99020.80
2023-03-03T01:31:44.593Z,99013.16
2023-03-03T01:36:46.288Z,99006.38
2023-03-03T01:41:48.525Z,99003.23
2023-03-03T01:47:12.875Z,98999.73
2023-03-03T01:52:36.463Z,98999.68
2023-03-03T01:57:43.978Z,98996.00
2023-03-03T02:02:46.944Z,98994.26
2023-03-03T02:07:49.170Z,98998.90
2023-03-03T02:12:53.990Z,98995.79
2023-03-03T02:18:00.685Z,99006.14
2023-03-03T02:23:18.051Z,99012.67
2023-03-03T02:28:20.736Z,99020.96
2023-03-03T02:33:24.458Z,99022.33
2023-03-03T02:38:29.158Z,99020.92
2023-03-03T02:43:41.648Z,99023.39
2023-03-03T02:48:43.670Z,99028.33
2023-03-03T02:53:45.765Z,99023.45
2023-03-03T02:58:47.540Z,99019.03
2023-03-03T03:03:49.640Z,99013.90
2023-03-03T03:08:54.167Z,99008.98
2023-03-03T03:13:56.212Z,99003.84
2023-03-03T03:18:59.824Z,98992.11
2023-03-03T03:24:02.194Z,98996.07
2023-03-03T03:29:05.151Z,98997.97
2023-03-03T03:34:07.760Z,98998.23
2023-03-03T03:39:09.597Z,98987.94
2023-03-03T03:44:14.061Z,98989.55
2023-03-03T03:49:16.005Z,98986.33
2023-03-03T03:54:17.807Z,98979.90
2023-03-03T03:59:20.839Z,98983.67
2023-03-03T04:04:22.711Z,98991.80
2023-03-03T04:09:25.260Z,98998.86
2023-03-03T04:14:27.395Z,99010.98
2023-03-03T04:19:29.932Z,99009.19
2023-03-03T04:24:31.764Z,99008.14
2023-03-03T04:29:33.795Z,99011.30
2023-03-03T04:34:36.324Z,98999.53
2023-03-03T04:39:39.067Z,99006.32
2023-03-03T04:44:40.873Z,99017.02
2023-03-03T04:49:42.965Z,99008.33
2023-03-03T04:54:44.924Z,99006.02
2023-03-03T04:59:46.818Z,99006.90
2023-03-03T05:06:31.666Z,99010.27
2023-03-03T05:11:33.299Z,99023.39
2023-03-03T05:16:34.953Z,99036.89
2023-03-03T05:21:37.837Z,99034.53
2023-03-03T05:26:40.838Z,99041.79
2023-03-03T05:31:45.495Z,99044.86
2023-03-03T05:36:47.458Z,99052.34
2023-03-03T05:41:49.073Z,99058.76
2023-03-03T05:46:50.802Z,99065.24
2023-03-03T05:51:52.453Z,99077.54
2023-03-03T05:56:54.165Z,99083.84
2023-03-03T06:01:55.926Z,99091.86
2023-03-03T06:06:57.941Z,99093.72
2023-03-03T06:11:59.685Z,99109.06
2023-03-03T06:17:01.439Z,99117.18
2023-03-03T06:22:03.613Z,99112.02
2023-03-03T06:27:07.849Z,99109.80
2023-03-03T06:32:09.745Z,99105.25
2023-03-03T06:37:11.605Z,99121.27
2023-03-03T06:42:13.484Z,99125.08
2023-03-03T06:47:15.197Z,99136.02
2023-03-03T06:52:22.019Z,99133.52
2023-03-03T06:57:28.219Z,99136.61
2023-03-03T07:02:29.898Z,99123.48
2023-03-03T07:07:31.809Z,99129.72
2023-03-03T07:12:35.538Z,99136.77
2023-03-03T07:17:41.885Z,99118.33
2023-03-03T07:22:43.641Z,99113.77
2023-03-03T07:27:45.327Z,99116.77
2023-03-03T07:32:47.485Z,99141.79
2023-03-03T07:37:49.351Z,99146.59
2023-03-03T07:42:51.828Z,99143.21
2023-03-03T07:48:19.261Z,99126.33
2023-03-03T07:53:34.959Z,99131.18
2023-03-03T07:58:42.064Z,99159.40
2023-03-03T08:03:46.824Z,99159.01
2023-03-03T08:09:21.618Z,99136.55
2023-03-03T08:14:41.130Z,99137.52
2023-03-03T08:19:42.832Z,99139.39
2023-03-03T08:24:44.642Z,99142.92
2023-03-03T08:29:48.439Z,99138.33
2023-03-03T08:34:50.328Z,99141.80
2023-03-03T08:39:52.137Z,99155.51
2023-03-03T08:44:53.726Z,99158.33
2023-03-03T08:49:55.421Z,99165.92
2023-03-03T08:54:57.274Z,99159.92
2023-03-03T08:59:59.018Z,99149.72
2023-03-03T09:05:01.191Z,99139.85
2023-03-03T09:10:04.811Z,99135.30
2023-03-03T09:15:19.041Z,99141.65
2023-03-03T09:20:44.159Z,99145.80
2023-03-03T09:25:47.208Z,99145.38
2023-03-03T09:30:51.483Z,99143.42
2023-03-03T09:36:03.388Z,99126.54
2023-03-03T09:41:05.080Z,99126.77
2023-03-03T09:46:25.848Z,99127.57
2023-03-03T09:51:49.335Z,99138.91
2023-03-03T09:57:04.171Z,99143.32
2023-03-03T10:02:33.723Z,99155.05
2023-03-03T10:07:50.881Z,99154.55
2023-03-03T10:13:20.025Z,99142.23
2023-03-03T10:18:42.593Z,99148.80
2023-03-03T10:23:59.074Z,99160.98
2023-03-03T10:29:22.622Z,99170.90
2023-03-03T10:34:43.456Z,99173.65
2023-03-03T10:39:48.169Z,99171.39
2023-03-03T10:45:08.088Z,99166.55
2023-03-03T10:50:35.261Z,99169.11
2023-03-03T10:56:11.126Z,99175.33
2023-03-03T11:01:34.716Z,99172.57
2023-03-03T11:07:07.132Z,99165.47
2023-03-03T11:12:15.185Z,99164.52
2023-03-03T11:17:30.467Z,99162.32
2023-03-03T11:23:11.024Z,99155.83
2023-03-03T11:28:19.437Z,99158.21
2023-03-03T11:33:36.008Z,99157.45
2023-03-03T11:39:03.667Z,99160.20
2023-03-03T11:44:19.226Z,99151.03
2023-03-03T11:49:38.577Z,99152.92
2023-03-03T11:54:54.860Z,99149.03
2023-03-03T12:00:20.542Z,99151.27
2023-03-03T12:05:31.289Z,99160.52
2023-03-03T12:10:45.285Z,99150.65
2023-03-03T12:15:49.672Z,99145.92
2023-03-03T12:21:16.356Z,99152.96
2023-03-03T12:26:32.599Z,99144.68
2023-03-03T12:32:42.484Z,99135.67
2023-03-03T12:38:28.928Z,99135.18
2023-03-03T12:43:44.183Z,99125.13
2023-03-03T12:48:47.623Z,99119.80
2023-03-03T12:54:14.567Z,99110.66
2023-03-03T12:59:22.037Z,99113.54
2023-03-03T13:04:35.119Z,99115.35
2023-03-03T13:09:58.115Z,99111.80
2023-03-03T13:15:18.502Z,99114.67
2023-03-03T13:20:45.197Z,99115.66
2023-03-03T13:26:00.068Z,99113.08
2023-03-03T13:31:32.225Z,99116.86
2023-03-03T13:36:59.163Z,99110.73
2023-03-03T13:42:06.685Z,99108.65
2023-03-03T13:47:14.699Z,99112.11
2023-03-03T13:52:22.552Z,99107.15
2023-03-03T13:57:45.080Z,99105.54
2023-03-03T14:02:58.825Z,99106.09
2023-03-03T14:08:08.326Z,99097.70
2023-03-03T14:13:13.675Z,99099.33
2023-03-03T14:18:39.220Z,99102.53
2023-03-03T14:23:48.223Z,99103.29
2023-03-03T14:28:53.046Z,99101.85
2023-03-03T14:34:16.335Z,99093.03
2023-03-03T14:39:39.080Z,99088.03
2023-03-03T14:45:00.717Z,99091.05
2023-03-03T14:50:36.801Z,99086.36
2023-03-03T14:55:41.279Z,99082.10
2023-03-03T15:00:43.088Z,99084.55
2023-03-03T15:05:52.992Z,99096.28
2023-03-03T15:10:54.705Z,99095.27
2023-03-03T15:15:59.162Z,99088.63
2023-03-03T15:21:12.456Z,99077.80
2023-03-03T15:26:35.685Z,99078.42
2023-03-03T15:32:03.515Z,99079.60
2023-03-03T15:37:24.753Z,99080.02
2023-03-03T15:42:36.327Z,99080.33
2023-03-03T15:47:56.806Z,99082.45
2023-03-03T15:53:34.127Z,99079.51
2023-03-03T15:59:20.007Z,99075.76
2023-03-03T16:04:26.209Z,99077.02
2023-03-03T16:09:39.800Z,99078.56
2023-03-03T16:15:06.360Z,99083.80
2023-03-03T16:20:33.458Z,99087.12
2023-03-03T16:26:00.176Z,99083.40
2023-03-03T16:31:13.243Z,99084.19
2023-03-03T16:36:17.800Z,99095.29
2023-03-03T16:41:26.880Z,99095.17
2023-03-03T16:46:33.800Z,99096.03
2023-03-03T16:51:46.687Z,99097.54
2023-03-03T16:57:19.617Z,99098.58
2023-03-03T17:03:00.503Z,99098.84
2023-03-03T17:08:39.445Z,99093.90
2023-03-03T17:13:59.725Z,99097.81
2023-03-03T17:19:28.412Z,99103.51
2023-03-03T17:24:45.622Z,99112.68
2023-03-03T17:29:55.334Z,99116.80
2023-03-03T17:35:19.930Z,99115.30
2023-03-03T17:40:33.157Z,99114.62
2023-03-03T17:45:41.007Z,99113.27
2023-03-03T17:51:14.148Z,99115.67
2023-03-03T17:56:22.955Z,99113.73
2023-03-03T18:01:40.568Z,99115.13
2023-03-03T18:07:00.900Z,99111.64
2023-03-03T18:12:23.945Z,99113.80
2023-03-03T18:17:38.006Z,99108.98
2023-03-03T18:22:45.826Z,99109.75
2023-03-03T18:28:07.490Z,99120.05
2023-03-03T18:33:13.005Z,99123.32
2023-03-03T18:38:17.985Z,99119.73
2023-03-03T18:43:45.069Z,99111.55
2023-03-03T18:48:50.500Z,99106.58
2023-03-03T18:54:07.509Z,99106.54
2023-03-03T18:59:09.774Z,99096.52
2023-03-03T19:04:26.323Z,99093.87
2023-03-03T19:09:52.504Z,99092.33
2023-03-03T19:14:54.401Z,99087.10
2023-03-03T19:20:18.169Z,99092.83
2023-03-03T19:25:28.625Z,99097.31
2023-03-03T19:30:39.853Z,99095.42
2023-03-03T19:36:03.124Z,99101.23
2023-03-03T19:41:37.774Z,99098.40
2023-03-03T19:47:13.205Z,99093.59
2023-03-03T19:52:29.913Z,99098.95
2023-03-03T19:58:05.938Z,99099.92
2023-03-03T20:03:48.003Z,99096.12
2023-03-03T20:09:04.733Z,99088.52
2023-03-03T20:14:21.622Z,99084.49
2023-03-03T20:19:42.237Z,99092.50
2023-03-03T20:25:06.030Z,99092.92
2023-03-03T20:30:38.275Z,99098.56
2023-03-03T20:35:51.367Z,99098.17
2023-03-03T20:41:23.845Z,99100.65
2023-03-03T20:46:47.643Z,99099.61
2023-03-03T20:52:01.757Z,99098.14
2023-03-03T20:57:23.131Z,99088.73
2023-03-03T21:02:38.648Z,99079.36
2023-03-03T21:08:03.673Z,99065.71
2023-03-03T21:13:47.636Z,99064.70
2023-03-03T21:18:57.613Z,99065.25
2023-03-03T21:23:59.410Z,99066.74
2023-03-03T21:29:03.510Z,99055.55
2023-03-03T21:34:18.314Z,99043.38
2023-03-03T21:39:31.312Z,99039.52
2023-03-03T21:44:32.992Z,99047.13
2023-03-03T21:49:34.597Z,99049.54
2023-03-03T21:54:36.486Z,99038.36
2023-03-03T21:59:38.872Z,99031.86
2023-03-03T22:04:41.385Z,99022.04
2023-03-03T22:09:43.670Z,99018.25
2023-03-03T22:14:51.737Z,99006.33
2023-03-03T22:19:55.625Z,98998.38
2023-03-03T22:24:57.346Z,98986.80
2023-03-03T22:29:59.038Z,98978.77
2023-03-03T22:35:00.885Z,98974.30
2023-03-03T22:40:02.728Z,98970.48
2023-03-03T22:45:24.475Z,98966.34
2023-03-03T22:50:28.220Z,98963.66
2023-03-03T22:55:36.948Z,98960.77
2023-03-03T23:00:39.291Z,98950.39
2023-03-03T23:05:41.971Z,98938.20
2023-03-03T23:10:43.741Z,98936.91
2023-03-03T23:15:45.522Z,98944.50
2023-03-03T23:20:47.368Z,98943.02
2023-03-03T23:25:49.397Z,98928.77
2023-03-03T23:30:52.320Z,98921.25
2023-03-03T23:35:54.267Z,98920.74
2023-03-03T23:40:56.010Z,98925.32
2023-03-03T23:45:57.705Z,98919.41
2023-03-03T23:51:01.389Z,98920.16
2023-03-03T23:56:03.367Z,98915.46
